createdAt,value
2019-05-16T00:00:28.973Z,24.35
2019-05-16T00:03:01.198Z,24.87
2019-05-16T00:05:32.836Z,25.10
2019-05-16T00:08:04.637Z,26.50
2019-05-16T00:10:38.397Z,24.95
2019-05-16T00:13:10.169Z,23.77
2019-05-16T00:15:45.505Z,25.60
2019-05-16T00:18:19.482Z,25.82
2019-05-16T00:20:51.078Z,26.68
2019-05-16T00:23:22.755Z,25.30
2019-05-16T00:25:54.302Z,23.35
2019-05-16T00:28:28.426Z,23.38
2019-05-16T00:30:59.423Z,22.35
2019-05-16T00:33:31.187Z,23.15
2019-05-16T00:36:05.871Z,24.00
2019-05-16T00:38:37.991Z,24.15
2019-05-16T00:41:09.483Z,22.48
2019-05-16T00:43:41.152Z,21.65
2019-05-16T00:46:12.813Z,21.82
2019-05-16T00:48:44.467Z,21.70
2019-05-16T00:51:18.331Z,19.65
2019-05-16T00:53:50.168Z,21.12
2019-05-16T00:56:21.915Z,19.82
2019-05-16T00:58:54.661Z,19.60
2019-05-16T01:01:28.269Z,17.92
2019-05-16T01:04:00.027Z,18.77
2019-05-16T01:06:31.653Z,17.37
2019-05-16T01:09:04.610Z,16.30
2019-05-16T01:11:38.202Z,16.62
2019-05-16T01:14:09.711Z,16.40
2019-05-16T01:16:41.350Z,16.62
2019-05-16T01:19:13.070Z,16.02
2019-05-16T01:21:44.619Z,15.25
2019-05-16T01:24:18.631Z,14.13
2019-05-16T01:26:49.733Z,13.88
2019-05-16T01:29:21.570Z,14.03
2019-05-16T01:31:53.199Z,15.75
2019-05-16T01:34:25.015Z,14.47
2019-05-16T01:36:58.803Z,16.15
2019-05-16T01:39:30.022Z,15.28
2019-05-16T01:42:01.776Z,14.07
2019-05-16T01:44:33.511Z,12.45
2019-05-16T01:47:05.269Z,12.78
2019-05-16T01:49:38.080Z,13.58
2019-05-16T01:52:11.029Z,12.45
2019-05-16T01:54:42.681Z,12.50
2019-05-16T01:57:14.293Z,12.50
2019-05-16T01:59:48.400Z,14.10
2019-05-16T02:02:19.408Z,12.80
2019-05-16T02:04:51.121Z,12.07
2019-05-16T02:07:22.804Z,12.43
2019-05-16T02:09:58.097Z,12.07
2019-05-16T02:12:29.337Z,11.90
2019-05-16T02:15:01.068Z,11.25
2019-05-16T02:17:38.307Z,11.85
2019-05-16T02:20:10.205Z,12.63
2019-05-16T02:22:41.833Z,11.70
2019-05-16T02:25:13.591Z,12.85
2019-05-16T02:27:45.184Z,12.10
2019-05-16T02:30:16.995Z,11.55
2019-05-16T02:32:51.917Z,10.98
2019-05-16T02:35:22.206Z,11.15
2019-05-16T02:37:55.361Z,11.28
2019-05-16T02:40:27.564Z,11.05
2019-05-16T02:43:01.787Z,10.98
2019-05-16T02:45:32.819Z,10.38
2019-05-16T02:48:04.831Z,10.10
2019-05-16T02:50:36.562Z,10.10
2019-05-16T02:53:08.122Z,9.88
2019-05-16T02:55:41.057Z,9.03
2019-05-16T02:58:13.265Z,9.90
2019-05-16T03:00:44.877Z,9.65
2019-05-16T03:03:16.653Z,9.55
2019-05-16T03:05:50.796Z,9.65
2019-05-16T03:08:23.420Z,9.28
2019-05-16T03:10:56.307Z,9.50
2019-05-16T03:13:31.441Z,9.70
2019-05-16T03:16:04.519Z,9.83
2019-05-16T03:18:36.980Z,9.75
2019-05-16T03:21:12.616Z,10.45
2019-05-16T03:23:44.240Z,9.38
2019-05-16T03:26:15.896Z,9.50
2019-05-16T03:28:47.441Z,9.58
2019-05-16T03:31:24.247Z,9.45
2019-05-16T03:33:59.190Z,9.60
2019-05-16T03:36:25.924Z,9.50
2019-05-16T03:38:57.689Z,10.25
2019-05-16T03:41:30.866Z,10.03
2019-05-16T03:44:02.926Z,10.53
2019-05-16T03:46:35.497Z,9.68
2019-05-16T03:49:07.181Z,10.80
2019-05-16T03:51:41.503Z,9.88
2019-05-16T03:54:12.816Z,10.03
2019-05-16T03:56:44.511Z,9.90
2019-05-16T03:59:16.119Z,10.10
2019-05-16T04:01:50.911Z,10.45
2019-05-16T04:04:21.338Z,10.40
2019-05-16T04:06:53.088Z,10.93
2019-05-16T04:09:24.745Z,10.82
2019-05-16T04:11:56.387Z,10.20
2019-05-16T04:14:30.958Z,10.80
2019-05-16T04:17:01.782Z,11.25
2019-05-16T04:19:33.434Z,10.53
2019-05-16T04:22:10.425Z,10.30
2019-05-16T04:24:41.888Z,10.58
2019-05-16T04:27:13.633Z,9.88
2019-05-16T04:29:46.591Z,10.63
2019-05-16T04:32:20.861Z,10.03
2019-05-16T04:34:51.569Z,10.05
2019-05-16T04:37:26.221Z,10.03
2019-05-16T04:39:56.493Z,10.60
2019-05-16T04:42:30.921Z,9.65
2019-05-16T04:45:01.460Z,9.28
2019-05-16T04:47:33.103Z,9.40
2019-05-16T04:50:06.801Z,8.98
2019-05-16T04:52:41.387Z,8.83
2019-05-16T04:55:12.468Z,8.68
2019-05-16T04:57:44.078Z,9.18
2019-05-16T05:00:15.866Z,8.30
2019-05-16T05:02:47.538Z,8.35
2019-05-16T05:05:21.482Z,8.63
2019-05-16T05:07:53.428Z,8.53
2019-05-16T05:10:24.951Z,8.45
2019-05-16T05:12:56.560Z,7.87
2019-05-16T05:15:30.485Z,7.62
2019-05-16T05:18:01.663Z,7.53
2019-05-16T05:20:33.445Z,7.47
2019-05-16T05:23:05.157Z,7.97
2019-05-16T05:25:36.689Z,7.67
2019-05-16T05:28:10.023Z,7.35
2019-05-16T05:30:42.861Z,8.23
2019-05-16T05:33:14.622Z,8.05
2019-05-16T05:35:46.198Z,8.20
2019-05-16T05:38:21.218Z,7.83
2019-05-16T05:41:00.036Z,8.20
2019-05-16T05:43:30.791Z,7.33
2019-05-16T05:46:04.004Z,6.60
2019-05-16T05:48:35.731Z,7.05
2019-05-16T05:51:07.393Z,6.30
2019-05-16T05:53:40.196Z,6.65
2019-05-16T05:56:12.129Z,6.53
2019-05-16T05:58:44.812Z,6.33
2019-05-16T06:01:16.429Z,6.53
2019-05-16T06:03:50.353Z,6.10
2019-05-16T06:06:21.309Z,6.53
2019-05-16T06:08:52.940Z,6.45
2019-05-16T06:11:24.469Z,5.85
2019-05-16T06:13:55.979Z,6.53
2019-05-16T06:16:27.781Z,5.90
2019-05-16T06:19:00.943Z,5.95
2019-05-16T06:21:33.740Z,5.70
2019-05-16T06:24:06.247Z,7.17
2019-05-16T06:26:39.790Z,7.05
2019-05-16T06:29:12.131Z,5.53
2019-05-16T06:31:43.637Z,5.35
2019-05-16T06:34:16.402Z,5.83
2019-05-16T06:36:47.815Z,5.85
2019-05-16T06:39:19.883Z,5.72
2019-05-16T06:41:51.703Z,5.80
2019-05-16T06:44:23.254Z,5.12
2019-05-16T06:47:07.360Z,4.90
2019-05-16T06:49:30.243Z,5.30
2019-05-16T06:52:01.160Z,5.03
2019-05-16T06:54:34.077Z,5.45
2019-05-16T06:57:05.558Z,5.58
2019-05-16T06:59:37.163Z,9.73
2019-05-16T07:02:10.858Z,5.65
2019-05-16T07:04:42.768Z,8.38
2019-05-16T07:07:14.359Z,4.90
2019-05-16T07:09:58.179Z,4.47
2019-05-16T07:12:20.528Z,5.55
2019-05-16T07:14:52.268Z,4.90
2019-05-16T07:17:23.822Z,4.65
2019-05-16T07:19:55.337Z,4.97
2019-05-16T07:22:27.882Z,7.33
2019-05-16T07:25:00.722Z,4.55
2019-05-16T07:27:33.217Z,4.50
2019-05-16T07:30:06.412Z,4.42
2019-05-16T07:32:40.234Z,4.92
2019-05-16T07:35:11.733Z,5.20
2019-05-16T07:37:43.246Z,4.92
2019-05-16T07:40:19.613Z,5.35
2019-05-16T07:42:50.766Z,5.40
2019-05-16T07:45:21.785Z,5.30
2019-05-16T07:47:53.213Z,5.20
2019-05-16T07:50:24.694Z,4.90
2019-05-16T07:52:56.549Z,5.28
2019-05-16T07:55:28.094Z,5.37
2019-05-16T07:57:59.695Z,5.47
2019-05-16T08:00:47.854Z,5.53
2019-05-16T08:03:05.531Z,5.10
2019-05-16T08:05:37.019Z,5.67
2019-05-16T08:08:10.492Z,4.97
2019-05-16T08:10:46.594Z,5.35
2019-05-16T08:13:17.762Z,4.70
2019-05-16T08:15:50.295Z,4.80
2019-05-16T08:18:22.277Z,4.75
2019-05-16T08:20:53.754Z,5.72
2019-05-16T08:23:25.974Z,5.28
2019-05-16T08:25:57.581Z,4.45
2019-05-16T08:31:02.215Z,3.90
2019-05-16T08:33:20.808Z,4.60
2019-05-16T08:33:33.644Z,4.80
2019-05-16T08:36:08.333Z,4.58
2019-05-16T08:38:42.939Z,4.72
2019-05-16T08:43:44.565Z,3.80
2019-05-16T08:46:16.021Z,4.80
2019-05-16T08:48:47.419Z,4.92
2019-05-16T08:50:11.748Z,4.03
2019-05-16T08:51:22.322Z,4.90
2019-05-16T08:53:52.311Z,4.72
2019-05-16T08:56:23.861Z,4.87
2019-05-16T08:58:55.291Z,4.90
2019-05-16T09:01:26.742Z,4.78
2019-05-16T09:06:32.202Z,5.58
2019-05-16T09:09:22.247Z,5.35
2019-05-16T09:10:15.893Z,5.33
2019-05-16T09:11:44.005Z,4.72
2019-05-16T09:14:11.447Z,5.00
2019-05-16T09:16:47.518Z,5.10
2019-05-16T09:19:17.354Z,4.95
2019-05-16T09:21:48.818Z,5.37
2019-05-16T09:24:27.348Z,4.87
2019-05-16T09:26:59.094Z,5.47
2019-05-16T09:29:30.534Z,5.22
2019-05-16T09:32:16.298Z,5.35
2019-05-16T09:34:37.887Z,5.33
2019-05-16T09:37:09.369Z,5.50
2019-05-16T09:39:41.774Z,5.50
2019-05-16T09:42:13.400Z,5.90
2019-05-16T09:44:47.366Z,6.00
2019-05-16T09:47:18.142Z,5.03
2019-05-16T09:49:49.668Z,5.42
2019-05-16T09:52:21.240Z,5.80
2019-05-16T09:54:52.750Z,5.55
2019-05-16T09:57:24.246Z,5.78
2019-05-16T09:59:57.243Z,6.40
2019-05-16T10:02:29.043Z,5.40
2019-05-16T10:05:13.427Z,5.42
2019-05-16T10:07:40.867Z,5.20
2019-05-16T10:10:13.569Z,5.30
2019-05-16T10:12:45.185Z,3.02
2019-05-16T10:15:17.586Z,5.20
2019-05-16T10:17:49.384Z,3.50
2019-05-16T10:20:21.064Z,5.22
2019-05-16T10:22:52.566Z,3.35
2019-05-16T10:25:24.250Z,5.55
2019-05-16T10:27:55.682Z,5.75
2019-05-16T10:30:28.326Z,5.60
2019-05-16T10:33:00.997Z,5.10
2019-05-16T10:35:32.655Z,5.62
2019-05-16T10:38:04.471Z,4.87
2019-05-16T10:40:36.967Z,4.83
2019-05-16T10:43:08.764Z,3.40
2019-05-16T10:45:40.302Z,5.33
2019-05-16T10:48:11.789Z,5.53
2019-05-16T10:50:43.887Z,5.08
2019-05-16T10:53:39.817Z,4.83
2019-05-16T10:55:49.773Z,4.47
2019-05-16T10:58:35.537Z,4.60
2019-05-16T11:01:24.271Z,4.65
2019-05-16T11:03:28.936Z,5.50
2019-05-16T11:06:05.685Z,5.20
2019-05-16T11:08:33.741Z,4.60
2019-05-16T11:11:06.644Z,4.80
2019-05-16T11:13:38.533Z,4.78
2019-05-16T11:16:10.008Z,5.17
2019-05-16T11:25:58.553Z,4.22
2019-05-16T11:28:31.556Z,4.00
2019-05-16T11:31:04.072Z,4.30
2019-05-16T11:33:37.005Z,2.05
2019-05-16T11:36:12.566Z,4.60
2019-05-16T11:38:41.974Z,4.20
2019-05-16T11:41:13.469Z,4.47
2019-05-16T11:43:47.207Z,3.45
2019-05-16T11:46:20.565Z,4.62
2019-05-16T11:48:52.211Z,4.55
2019-05-16T11:51:23.710Z,3.15
2019-05-16T11:53:59.739Z,4.35
2019-05-16T11:56:28.573Z,4.03
2019-05-16T11:59:00.528Z,2.65
2019-05-16T12:01:36.995Z,4.50
2019-05-16T12:04:10.420Z,4.20
2019-05-16T12:06:41.897Z,3.77
2019-05-16T12:09:13.461Z,3.58
2019-05-16T12:11:45.021Z,4.35
2019-05-16T12:14:19.372Z,4.83
2019-05-16T12:16:56.953Z,4.75
2019-05-16T12:19:34.496Z,4.47
2019-05-16T12:22:01.937Z,3.52
2019-05-16T12:24:41.134Z,3.58
2019-05-16T12:27:12.392Z,3.08
2019-05-16T12:29:44.026Z,4.90
2019-05-16T12:32:17.095Z,4.45
2019-05-16T12:34:58.934Z,4.50
2019-05-16T12:37:30.447Z,4.03
2019-05-16T12:40:10.330Z,4.40
2019-05-16T12:42:41.891Z,3.58
2019-05-16T12:45:14.605Z,4.40
2019-05-16T12:47:49.960Z,4.50
2019-05-16T12:50:22.801Z,3.77
2019-05-16T12:52:56.803Z,4.25
2019-05-16T12:55:27.656Z,4.80
2019-05-16T12:58:12.569Z,4.42
2019-05-16T13:00:32.469Z,4.92
2019-05-16T13:03:03.996Z,4.50
2019-05-16T13:05:37.642Z,4.40
2019-05-16T13:08:14.126Z,4.37
2019-05-16T13:10:47.006Z,4.25
2019-05-16T13:13:30.282Z,3.53
2019-05-16T13:16:01.864Z,4.45
2019-05-16T13:18:37.478Z,3.87
2019-05-16T13:21:09.121Z,3.35
2019-05-16T13:23:46.689Z,4.47
2019-05-16T13:26:18.024Z,5.03
2019-05-16T13:28:49.577Z,4.20
2019-05-16T13:31:21.590Z,4.47
2019-05-16T13:33:53.093Z,4.15
2019-05-16T13:36:27.065Z,4.50
2019-05-16T13:38:58.089Z,4.22
2019-05-16T13:41:29.721Z,4.53
2019-05-16T13:44:14.360Z,4.33
2019-05-16T13:46:37.165Z,4.50
2019-05-16T13:49:08.898Z,3.37
2019-05-16T13:51:40.444Z,3.22
2019-05-16T13:54:11.945Z,3.70
2019-05-16T13:56:43.506Z,3.17
2019-05-16T13:59:17.195Z,3.62
2019-05-16T14:01:48.358Z,3.90
2019-05-16T14:04:20.024Z,3.75
2019-05-16T14:06:55.037Z,4.25
2019-05-16T14:09:26.852Z,4.10
2019-05-16T14:11:58.186Z,3.58
2019-05-16T14:14:37.342Z,4.50
2019-05-16T14:17:11.867Z,3.92
2019-05-16T14:19:37.838Z,3.50
2019-05-16T14:22:09.435Z,3.77
2019-05-16T14:24:41.913Z,3.20
2019-05-16T14:27:13.506Z,4.30
2019-05-16T14:29:47.700Z,4.33
2019-05-16T14:32:20.221Z,3.77
2019-05-16T14:34:53.657Z,4.83
2019-05-16T14:37:26.865Z,4.87
2019-05-16T14:40:01.352Z,3.05
2019-05-16T14:42:33.433Z,3.50
2019-05-16T14:45:12.545Z,4.78
2019-05-16T14:47:43.556Z,3.92
2019-05-16T14:50:17.009Z,4.87
2019-05-16T14:52:48.819Z,4.28
2019-05-16T14:55:20.298Z,5.65
2019-05-16T14:57:52.075Z,6.70
2019-05-16T15:00:23.671Z,3.35
2019-05-16T15:02:56.741Z,4.15
2019-05-16T15:05:28.251Z,5.58
2019-05-16T15:08:00.172Z,4.17
2019-05-16T15:10:31.690Z,4.42
2019-05-16T15:13:07.583Z,4.35
2019-05-16T15:15:39.225Z,4.70
2019-05-16T15:18:12.195Z,5.12
2019-05-16T15:20:46.675Z,4.97
2019-05-16T15:23:17.606Z,4.90
2019-05-16T15:25:50.946Z,4.00
2019-05-16T15:28:22.571Z,5.00
2019-05-16T15:30:54.119Z,4.60
2019-05-16T15:33:27.328Z,5.45
2019-05-16T15:35:59.577Z,5.33
2019-05-16T15:38:32.699Z,5.50
2019-05-16T15:41:04.245Z,4.92
2019-05-16T15:43:36.915Z,5.35
2019-05-16T15:46:10.593Z,5.67
2019-05-16T15:48:44.237Z,5.60
2019-05-16T15:51:21.062Z,5.37
2019-05-16T15:53:51.866Z,4.53
2019-05-16T15:56:23.432Z,5.80
2019-05-16T15:58:55.162Z,5.55
2019-05-16T16:01:27.187Z,4.17
2019-05-16T16:03:59.210Z,5.22
2019-05-16T16:06:30.869Z,4.35
2019-05-16T16:09:03.433Z,5.35
2019-05-16T16:11:37.482Z,5.35
2019-05-16T16:14:12.660Z,5.50
2019-05-16T16:19:17.666Z,4.47
2019-05-16T16:21:49.235Z,5.10
2019-05-16T16:24:20.828Z,5.58
2019-05-16T16:26:52.509Z,5.50
2019-05-16T16:29:27.204Z,5.78
2019-05-16T16:34:33.522Z,6.42
2019-05-16T16:37:07.480Z,6.60
2019-05-16T16:39:38.601Z,6.05
2019-05-16T16:42:10.183Z,6.00
2019-05-16T16:44:41.736Z,6.12
2019-05-16T16:47:13.226Z,6.10
2019-05-16T16:49:47.327Z,5.58
2019-05-16T16:52:22.016Z,7.62
2019-05-16T16:54:53.714Z,7.50
2019-05-16T16:57:27.100Z,6.92
2019-05-16T16:59:58.801Z,7.17
2019-05-16T17:02:30.303Z,7.30
2019-05-16T17:05:02.929Z,7.37
2019-05-16T17:07:37.337Z,6.87
2019-05-16T17:10:09.443Z,7.33
2019-05-16T17:12:42.576Z,8.05
2019-05-16T17:15:16.957Z,7.85
2019-05-16T17:17:47.973Z,7.72
2019-05-16T17:20:21.869Z,8.10
2019-05-16T17:22:53.580Z,7.72
2019-05-16T17:25:26.958Z,8.53
2019-05-16T17:27:58.789Z,8.68
2019-05-16T17:30:31.537Z,8.30
2019-05-16T17:33:07.959Z,7.78
2019-05-16T17:35:39.973Z,8.53
2019-05-16T17:38:12.064Z,8.33
2019-05-16T17:40:46.440Z,7.87
2019-05-16T17:43:18.390Z,8.70
2019-05-16T17:45:51.653Z,8.00
2019-05-16T17:48:27.309Z,7.60
2019-05-16T17:50:57.948Z,8.20
2019-05-16T17:53:30.350Z,7.85
2019-05-16T17:56:03.572Z,8.30
2019-05-16T17:58:35.721Z,9.25
2019-05-16T18:01:10.102Z,9.83
2019-05-16T18:03:42.192Z,9.47
2019-05-16T18:06:14.303Z,7.58
2019-05-16T18:08:47.219Z,8.58
2019-05-16T18:11:26.638Z,8.43
2019-05-16T18:13:58.879Z,9.00
2019-05-16T18:16:30.677Z,8.45
2019-05-16T18:19:07.029Z,8.43
2019-05-16T18:21:40.319Z,8.13
2019-05-16T18:24:16.744Z,6.50
2019-05-16T18:26:50.011Z,7.92
2019-05-16T18:31:59.981Z,7.72
2019-05-16T18:34:31.970Z,7.90
2019-05-16T18:37:07.123Z,7.90
2019-05-16T18:39:40.107Z,7.58
2019-05-16T18:42:12.982Z,6.95
2019-05-16T18:44:47.231Z,7.50
2019-05-16T18:47:19.228Z,8.25
2019-05-16T18:49:51.066Z,7.42
2019-05-16T18:52:33.238Z,7.58
2019-05-16T18:55:08.389Z,7.58
2019-05-16T18:57:42.079Z,7.05
2019-05-16T19:00:14.816Z,7.30
2019-05-16T19:02:47.918Z,7.67
2019-05-16T19:05:19.800Z,8.05
2019-05-16T19:07:51.477Z,6.40
2019-05-16T19:10:23.673Z,8.40
2019-05-16T19:12:56.535Z,7.83
2019-05-16T19:15:28.830Z,8.40
2019-05-16T19:18:00.380Z,7.65
2019-05-16T19:20:32.166Z,8.23
2019-05-16T19:23:04.115Z,8.53
2019-05-16T19:25:36.162Z,7.65
2019-05-16T19:28:07.997Z,8.70
2019-05-16T19:30:39.663Z,9.40
2019-05-16T19:33:11.986Z,9.43
2019-05-16T19:35:46.856Z,9.55
2019-05-16T19:38:19.937Z,9.38
2019-05-16T19:40:53.220Z,9.00
2019-05-16T19:43:26.493Z,8.35
2019-05-16T19:45:59.205Z,8.23
2019-05-16T19:48:33.564Z,8.40
2019-05-16T19:51:08.000Z,9.13
2019-05-16T19:53:41.336Z,10.32
2019-05-16T19:56:13.184Z,9.93
2019-05-16T19:58:46.792Z,11.25
2019-05-16T20:01:18.421Z,11.33
2019-05-16T20:03:51.171Z,10.60
2019-05-16T20:06:24.156Z,11.70
2019-05-16T20:08:56.260Z,12.03
2019-05-16T20:11:28.053Z,11.03
2019-05-16T20:13:59.946Z,11.00
2019-05-16T20:16:33.217Z,11.30
2019-05-16T20:19:05.595Z,12.07
2019-05-16T20:21:40.476Z,12.78
2019-05-16T20:24:12.763Z,11.30
2019-05-16T20:26:46.437Z,11.60
2019-05-16T20:29:17.983Z,11.93
2019-05-16T20:31:49.675Z,11.40
2019-05-16T20:34:21.785Z,11.93
2019-05-16T20:36:57.735Z,10.65
2019-05-16T20:39:31.333Z,12.05
2019-05-16T20:42:02.992Z,12.53
2019-05-16T20:44:37.161Z,11.88
2019-05-16T20:47:08.100Z,12.10
2019-05-16T20:49:40.615Z,11.90
2019-05-16T20:52:12.565Z,12.15
2019-05-16T20:54:46.650Z,12.80
2019-05-16T20:57:17.696Z,11.33
2019-05-16T20:59:51.370Z,13.55
2019-05-16T21:02:23.113Z,12.93
2019-05-16T21:04:56.958Z,12.35
2019-05-16T21:07:28.456Z,13.83
2019-05-16T21:10:00.146Z,13.98
2019-05-16T21:12:31.785Z,13.48
2019-05-16T21:15:06.370Z,14.43
2019-05-16T21:17:37.542Z,13.70
2019-05-16T21:20:09.361Z,13.30
2019-05-16T21:22:41.033Z,14.20
2019-05-16T21:25:12.917Z,14.18
2019-05-16T21:27:46.517Z,14.75
2019-05-16T21:30:19.220Z,15.50
2019-05-16T21:32:51.767Z,15.35
2019-05-16T21:35:23.484Z,15.75
2019-05-16T21:37:57.651Z,14.70
2019-05-16T21:40:31.419Z,14.85
2019-05-16T21:43:03.159Z,13.58
2019-05-16T21:45:37.116Z,13.55
2019-05-16T21:48:09.023Z,12.70
2019-05-16T21:50:40.796Z,12.47
2019-05-16T21:53:14.037Z,11.25
2019-05-16T21:55:47.195Z,12.10
2019-05-16T21:58:19.376Z,14.65
2019-05-16T22:00:56.827Z,15.43
2019-05-16T22:03:30.437Z,16.75
2019-05-16T22:06:02.251Z,14.15
2019-05-16T22:08:36.370Z,15.58
2019-05-16T22:11:09.640Z,15.50
2019-05-16T22:13:41.524Z,15.30
2019-05-16T22:16:13.372Z,15.58
2019-05-16T22:18:47.460Z,14.47
2019-05-16T22:21:18.711Z,15.38
2019-05-16T22:23:50.952Z,15.63
2019-05-16T22:26:22.781Z,15.53
2019-05-16T22:28:57.299Z,14.78
2019-05-16T22:31:28.216Z,14.98
2019-05-16T22:34:00.085Z,13.88
2019-05-16T22:36:33.139Z,14.35
2019-05-16T22:39:06.893Z,13.55
2019-05-16T22:41:39.042Z,14.78
2019-05-16T22:44:10.751Z,13.22
2019-05-16T22:46:42.473Z,14.43
2019-05-16T22:49:16.817Z,14.43
2019-05-16T22:51:47.897Z,14.00
2019-05-16T22:54:19.631Z,13.88
2019-05-16T22:56:52.951Z,13.75
2019-05-16T22:59:24.690Z,13.85
2019-05-16T23:01:57.168Z,13.93
2019-05-16T23:04:31.848Z,12.28
2019-05-16T23:07:03.593Z,12.80
2019-05-16T23:09:36.583Z,15.05
2019-05-16T23:12:08.776Z,15.40
2019-05-16T23:14:40.528Z,16.17
2019-05-16T23:17:12.367Z,15.03
2019-05-16T23:19:43.945Z,16.32
2019-05-16T23:22:16.741Z,15.05
2019-05-16T23:24:48.670Z,15.03
2019-05-16T23:27:20.435Z,12.45
2019-05-16T23:29:52.155Z,13.58
2019-05-16T23:32:24.463Z,15.65
2019-05-16T23:34:57.203Z,16.15
2019-05-16T23:37:30.641Z,14.38
2019-05-16T23:40:03.744Z,15.88
2019-05-16T23:42:37.259Z,16.07
2019-05-16T23:45:09.877Z,16.93
2019-05-16T23:47:41.693Z,14.25
2019-05-16T23:50:17.124Z,17.17
2019-05-16T23:52:48.453Z,17.05
2019-05-16T23:55:20.383Z,16.73
2019-05-16T23:57:52.113Z,13.18
